sensor_id;sensor_type;location;lat;lon;timestamp;pressure;altitude;pressure_sealevel;temperature;humidity
76285;BME280;71676;50.998;7.098;2024-03-23T00:52:47;100317.00;;;8.71;63.47
76285;BME280;71676;50.998;7.098;2024-03-23T00:55:14;100327.34;;;8.74;63.29
76285;BME280;71676;50.998;7.098;2024-03-23T00:57:39;100315.41;;;8.82;63.11
76285;BME280;71676;50.998;7.098;2024-03-23T01:00:06;100314.56;;;8.86;63.09
76285;BME280;71676;50.998;7.098;2024-03-23T01:02:35;100300.91;;;8.90;62.46
76285;BME280;71676;50.998;7.098;2024-03-23T01:05:02;100303.41;;;8.84;62.95
76285;BME280;71676;50.998;7.098;2024-03-23T01:07:28;100303.41;;;8.86;63.02
76285;BME280;71676;50.998;7.098;2024-03-23T01:09:55;100294.88;;;8.87;63.25
76285;BME280;71676;50.998;7.098;2024-03-23T01:12:21;100294.78;;;8.79;62.86
76285;BME280;71676;50.998;7.098;2024-03-23T01:14:48;100294.78;;;8.78;62.71
76285;BME280;71676;50.998;7.098;2024-03-23T01:17:13;100302.44;;;8.70;63.29
76285;BME280;71676;50.998;7.098;2024-03-23T01:19:40;100296.38;;;8.62;63.47
76285;BME280;71676;50.998;7.098;2024-03-23T01:22:06;100295.50;;;8.59;63.30
76285;BME280;71676;50.998;7.098;2024-03-23T01:24:35;100294.53;;;8.45;63.87
76285;BME280;71676;50.998;7.098;2024-03-23T01:27:02;100289.44;;;8.49;64.57
76285;BME280;71676;50.998;7.098;2024-03-23T01:29:28;100287.63;;;8.39;63.19
76285;BME280;71676;50.998;7.098;2024-03-23T01:31:54;100289.34;;;8.37;63.60
76285;BME280;71676;50.998;7.098;2024-03-23T01:34:21;100291.03;;;8.34;63.68
76285;BME280;71676;50.998;7.098;2024-03-23T01:36:46;100284.06;;;8.24;64.18
76285;BME280;71676;50.998;7.098;2024-03-23T01:39:13;100293.44;;;8.20;63.83
76285;BME280;71676;50.998;7.098;2024-03-23T01:41:39;100301.16;;;8.20;63.81
76285;BME280;71676;50.998;7.098;2024-03-23T01:44:09;100301.97;;;8.15;63.99
76285;BME280;71676;50.998;7.098;2024-03-23T01:46:35;100301.03;;;8.07;64.06
76285;BME280;71676;50.998;7.098;2024-03-23T01:49:02;100298.53;;;8.13;64.25
76285;BME280;71676;50.998;7.098;2024-03-23T01:51:29;100289.88;;;8.05;64.06
76285;BME280;71676;50.998;7.098;2024-03-23T01:53:56;100284.75;;;8.05;64.40
76285;BME280;71676;50.998;7.098;2024-03-23T01:56:22;100284.63;;;7.90;64.61
76285;BME280;71676;50.998;7.098;2024-03-23T01:58:49;100289.47;;;7.67;64.95
76285;BME280;71676;50.998;7.098;2024-03-23T02:01:16;100285.16;;;7.66;64.99
76285;BME280;71676;50.998;7.098;2024-03-23T02:03:44;100280.75;;;7.54;65.42
76285;BME280;71676;50.998;7.098;2024-03-23T02:06:10;100279.78;;;7.46;65.03
76285;BME280;71676;50.998;7.098;2024-03-23T02:08:37;100281.47;;;7.43;64.88
76285;BME280;71676;50.998;7.098;2024-03-23T02:11:03;100289.19;;;7.43;65.05
76285;BME280;71676;50.998;7.098;2024-03-23T02:13:29;100276.28;;;7.38;64.87
76285;BME280;71676;50.998;7.098;2024-03-23T02:15:56;100284.88;;;7.42;64.79
76285;BME280;71676;50.998;7.098;2024-03-23T02:18:24;100293.22;;;7.26;64.49
76285;BME280;71676;50.998;7.098;2024-03-23T02:20:50;100288.25;;;7.36;64.87
76285;BME280;71676;50.998;7.098;2024-03-23T02:23:18;100289.09;;;7.38;64.84
76285;BME280;71676;50.998;7.098;2024-03-23T02:25:44;100285.66;;;7.33;64.87
76285;BME280;71676;50.998;7.098;2024-03-23T02:28:11;100283.06;;;7.32;64.35
76285;BME280;71676;50.998;7.098;2024-03-23T02:30:37;100283.09;;;7.35;64.07
76285;BME280;71676;50.998;7.098;2024-03-23T02:33:04;100289.00;;;7.29;64.42
76285;BME280;71676;50.998;7.098;2024-03-23T02:35:29;100297.28;;;7.09;64.83
76285;BME280;71676;50.998;7.098;2024-03-23T02:37:56;100304.31;;;7.25;64.33
76285;BME280;71676;50.998;7.098;2024-03-23T02:40:23;100310.41;;;7.31;64.73
76285;BME280;71676;50.998;7.098;2024-03-23T02:42:50;100292.50;;;7.36;64.48
76285;BME280;71676;50.998;7.098;2024-03-23T02:45:16;100295.94;;;7.38;64.23
76285;BME280;71676;50.998;7.098;2024-03-23T02:47:43;100295.94;;;7.38;64.17
76285;BME280;71676;50.998;7.098;2024-03-23T02:50:09;100304.63;;;7.47;64.11
76285;BME280;71676;50.998;7.098;2024-03-23T02:52:36;100311.31;;;7.36;64.08
76285;BME280;71676;50.998;7.098;2024-03-23T02:55:01;100312.94;;;7.28;64.34
76285;BME280;71676;50.998;7.098;2024-03-23T02:57:29;100323.16;;;7.27;64.18
76285;BME280;71676;50.998;7.098;2024-03-23T02:59:55;100322.16;;;7.16;64.16
76285;BME280;71676;50.998;7.098;2024-03-23T03:02:22;100323.00;;;7.16;63.71
76285;BME280;71676;50.998;7.098;2024-03-23T03:04:48;100319.63;;;7.17;63.45
76285;BME280;71676;50.998;7.098;2024-03-23T03:07:14;100317.06;;;7.19;63.07
76285;BME280;71676;50.998;7.098;2024-03-23T03:09:40;100311.09;;;7.20;62.82
76285;BME280;71676;50.998;7.098;2024-03-23T03:12:07;100313.69;;;7.21;62.54
76285;BME280;71676;50.998;7.098;2024-03-23T03:14:34;100322.19;;;7.19;62.45
76285;BME280;71676;50.998;7.098;2024-03-23T03:17:01;100315.41;;;7.22;62.04
76285;BME280;71676;50.998;7.098;2024-03-23T03:19:26;100310.09;;;7.10;61.86
76285;BME280;71676;50.998;7.098;2024-03-23T03:21:53;100308.19;;;6.96;61.06
76285;BME280;71676;50.998;7.098;2024-03-23T03:24:19;100304.91;;;7.04;62.42
76285;BME280;71676;50.998;7.098;2024-03-23T03:26:46;100303.09;;;6.99;62.15
76285;BME280;71676;50.998;7.098;2024-03-23T03:29:11;100286.91;;;7.00;62.09
76285;BME280;71676;50.998;7.098;2024-03-23T03:31:40;100289.44;;;6.98;62.11
76285;BME280;71676;50.998;7.098;2024-03-23T03:34:05;100304.59;;;6.85;62.78
76285;BME280;71676;50.998;7.098;2024-03-23T03:36:32;100298.66;;;6.87;62.61
76285;BME280;71676;50.998;7.098;2024-03-23T03:38:57;100313.28;;;6.94;62.24
76285;BME280;71676;50.998;7.098;2024-03-23T03:41:24;100313.38;;;7.02;61.94
76285;BME280;71676;50.998;7.098;2024-03-23T03:43:50;100310.91;;;7.06;62.14
76285;BME280;71676;50.998;7.098;2024-03-23T03:46:16;100297.28;;;7.09;61.69
76285;BME280;71676;50.998;7.098;2024-03-23T03:48:44;100302.34;;;7.04;61.89
76285;BME280;71676;50.998;7.098;2024-03-23T03:51:13;100299.75;;;7.01;60.82
76285;BME280;71676;50.998;7.098;2024-03-23T03:53:38;100310.03;;;7.04;61.84
76285;BME280;71676;50.998;7.098;2024-03-23T03:56:05;100297.16;;;7.01;61.66
76285;BME280;71676;50.998;7.098;2024-03-23T03:58:31;100302.28;;;7.01;61.65
76285;BME280;71676;50.998;7.098;2024-03-23T04:00:57;100314.91;;;6.88;61.30
76285;BME280;71676;50.998;7.098;2024-03-23T04:03:23;100308.09;;;6.88;62.30
76285;BME280;71676;50.998;7.098;2024-03-23T04:05:52;100309.09;;;6.99;61.88
76285;BME280;71676;50.998;7.098;2024-03-23T04:08:18;100312.56;;;7.03;62.04
76285;BME280;71676;50.998;7.098;2024-03-23T04:10:45;100317.75;;;7.07;61.45
76285;BME280;71676;50.998;7.098;2024-03-23T04:13:11;100287.53;;;6.85;61.31
76285;BME280;71676;50.998;7.098;2024-03-23T04:15:38;100313.34;;;6.97;61.76
76285;BME280;71676;50.998;7.098;2024-03-23T04:18:03;100316.66;;;6.90;61.85
76285;BME280;71676;50.998;7.098;2024-03-23T04:20:30;100319.28;;;6.93;61.78
76285;BME280;71676;50.998;7.098;2024-03-23T04:22:57;100321.91;;;6.99;61.99
76285;BME280;71676;50.998;7.098;2024-03-23T04:25:24;100321.94;;;7.01;61.86
76285;BME280;71676;50.998;7.098;2024-03-23T04:27:49;100315.81;;;6.91;61.70
76285;BME280;71676;50.998;7.098;2024-03-23T04:30:16;100324.34;;;6.89;61.97
76285;BME280;71676;50.998;7.098;2024-03-23T04:32:43;100318.44;;;6.96;62.16
76285;BME280;71676;50.998;7.098;2024-03-23T04:35:09;100317.63;;;6.98;61.80
76285;BME280;71676;50.998;7.098;2024-03-23T04:37:35;100314.97;;;6.94;61.84
76285;BME280;71676;50.998;7.098;2024-03-23T04:40:04;100320.09;;;6.94;62.00
76285;BME280;71676;50.998;7.098;2024-03-23T04:42:32;100317.53;;;6.94;61.75
76285;BME280;71676;50.998;7.098;2024-03-23T04:44:59;100330.34;;;6.94;62.11
76285;BME280;71676;50.998;7.098;2024-03-23T04:47:25;100326.97;;;6.93;61.47
76285;BME280;71676;50.998;7.098;2024-03-23T04:49:51;100332.03;;;6.89;60.86
76285;BME280;71676;50.998;7.098;2024-03-23T04:52:18;100330.22;;;6.85;61.35
76285;BME280;71676;50.998;7.098;2024-03-23T04:54:45;100333.53;;;6.78;61.67
76285;BME280;71676;50.998;7.098;2024-03-23T04:57:12;100336.09;;;6.78;61.23
76285;BME280;71676;50.998;7.098;2024-03-23T04:59:39;100333.47;;;6.75;61.24
76285;BME280;71676;50.998;7.098;2024-03-23T05:02:05;100329.22;;;6.75;60.95
76285;BME280;71676;50.998;7.098;2024-03-23T05:04:31;100331.78;;;6.74;61.47
76285;BME280;71676;50.998;7.098;2024-03-23T05:06:57;100318.88;;;6.68;62.07
76285;BME280;71676;50.998;7.098;2024-03-23T05:09:24;100323.19;;;6.72;61.33
76285;BME280;71676;50.998;7.098;2024-03-23T05:11:55;100320.56;;;6.67;61.83
76285;BME280;71676;50.998;7.098;2024-03-23T05:14:23;100322.22;;;6.64;61.51
76285;BME280;71676;50.998;7.098;2024-03-23T05:16:48;100320.44;;;6.60;61.81
76285;BME280;71676;50.998;7.098;2024-03-23T05:19:15;100323.00;;;6.60;61.84
76285;BME280;71676;50.998;7.098;2024-03-23T05:21:41;100332.34;;;6.56;61.93
76285;BME280;71676;50.998;7.098;2024-03-23T05:24:07;100336.59;;;6.56;62.05
76285;BME280;71676;50.998;7.098;2024-03-23T05:26:33;100340.06;;;6.58;62.29
76285;BME280;71676;50.998;7.098;2024-03-23T05:29:00;100338.38;;;6.58;61.71
76285;BME280;71676;50.998;7.098;2024-03-23T05:31:29;100340.06;;;6.58;61.61
76285;BME280;71676;50.998;7.098;2024-03-23T05:33:55;100348.59;;;6.57;61.68
76285;BME280;71676;50.998;7.098;2024-03-23T05:36:21;100328.69;;;6.41;62.00
76285;BME280;71676;50.998;7.098;2024-03-23T05:38:49;100347.63;;;6.50;62.04
76285;BME280;71676;50.998;7.098;2024-03-23T05:41:14;100350.06;;;6.46;62.32
76285;BME280;71676;50.998;7.098;2024-03-23T05:43:41;100347.56;;;6.47;62.02
76285;BME280;71676;50.998;7.098;2024-03-23T05:46:07;100346.66;;;6.44;62.32
76285;BME280;71676;50.998;7.098;2024-03-23T05:48:35;100281.13;;;6.07;62.14
76285;BME280;71676;50.998;7.098;2024-03-23T05:51:01;100340.59;;;6.39;62.19
76285;BME280;71676;50.998;7.098;2024-03-23T05:53:28;100335.47;;;6.40;61.62
76285;BME280;71676;50.998;7.098;2024-03-23T05:56:00;100338.69;;;6.28;62.44
76285;BME280;71676;50.998;7.098;2024-03-23T05:58:29;100336.19;;;6.33;62.57
76285;BME280;71676;50.998;7.098;2024-03-23T06:00:57;100350.75;;;6.34;62.72
76285;BME280;71676;50.998;7.098;2024-03-23T06:03:24;100352.44;;;6.33;62.23
76285;BME280;71676;50.998;7.098;2024-03-23T06:05:51;100326.41;;;6.12;62.50
76285;BME280;71676;50.998;7.098;2024-03-23T06:08:18;100347.69;;;6.08;62.61
76285;BME280;71676;50.998;7.098;2024-03-23T06:10:45;100359.72;;;6.14;62.99
76285;BME280;71676;50.998;7.098;2024-03-23T06:13:12;100362.41;;;6.20;62.80
76285;BME280;71676;50.998;7.098;2024-03-23T06:15:37;100364.72;;;6.08;62.96
76285;BME280;71676;50.998;7.098;2024-03-23T06:18:04;100362.78;;;5.95;63.01
76285;BME280;71676;50.998;7.098;2024-03-23T06:20:36;100366.31;;;6.01;63.36
76285;BME280;71676;50.998;7.098;2024-03-23T06:23:04;100374.00;;;6.01;63.33
76285;BME280;71676;50.998;7.098;2024-03-23T06:25:30;100369.81;;;6.06;62.92
76285;BME280;71676;50.998;7.098;2024-03-23T06:27:56;100376.53;;;6.00;63.44
76285;BME280;71676;50.998;7.098;2024-03-23T06:30:23;100366.13;;;5.91;64.20
76285;BME280;71676;50.998;7.098;2024-03-23T06:32:50;100366.22;;;5.97;63.67
76285;BME280;71676;50.998;7.098;2024-03-23T06:35:15;100367.22;;;6.03;63.59
76285;BME280;71676;50.998;7.098;2024-03-23T06:37:42;100366.31;;;6.01;63.97
76285;BME280;71676;50.998;7.098;2024-03-23T06:40:09;100369.72;;;6.00;64.17
76285;BME280;71676;50.998;7.098;2024-03-23T06:42:36;100374.00;;;6.01;63.69
76285;BME280;71676;50.998;7.098;2024-03-23T06:45:02;100371.53;;;6.07;63.67
76285;BME280;71676;50.998;7.098;2024-03-23T06:47:30;100377.59;;;6.11;63.85
76285;BME280;71676;50.998;7.098;2024-03-23T06:49:56;100375.03;;;6.11;63.45
76285;BME280;71676;50.998;7.098;2024-03-23T06:52:22;100383.47;;;6.05;63.53
76285;BME280;71676;50.998;7.098;2024-03-23T06:54:48;100383.56;;;6.10;63.38
76285;BME280;71676;50.998;7.098;2024-03-23T06:57:16;100386.03;;;6.05;63.71
76285;BME280;71676;50.998;7.098;2024-03-23T06:59:42;100389.41;;;6.04;63.47
76285;BME280;71676;50.998;7.098;2024-03-23T07:02:08;100381.66;;;6.01;63.50
76285;BME280;71676;50.998;7.098;2024-03-23T07:04:34;100381.75;;;6.06;62.97
76285;BME280;71676;50.998;7.098;2024-03-23T07:07:01;100383.50;;;6.07;63.18
76285;BME280;71676;50.998;7.098;2024-03-23T07:09:27;100384.38;;;6.09;63.32
76285;BME280;71676;50.998;7.098;2024-03-23T07:11:54;100381.91;;;6.13;63.36
76285;BME280;71676;50.998;7.098;2024-03-23T07:14:21;100381.00;;;6.10;63.98
76285;BME280;71676;50.998;7.098;2024-03-23T07:16:48;100381.78;;;6.07;63.24
76285;BME280;71676;50.998;7.098;2024-03-23T07:19:14;100392.06;;;6.10;63.20
76285;BME280;71676;50.998;7.098;2024-03-23T07:21:42;100382.78;;;6.15;63.04
76285;BME280;71676;50.998;7.098;2024-03-23T07:24:08;100385.13;;;6.03;64.18
76285;BME280;71676;50.998;7.098;2024-03-23T07:26:34;100390.91;;;5.95;64.56
76285;BME280;71676;50.998;7.098;2024-03-23T07:29:00;100389.44;;;6.07;63.99
76285;BME280;71676;50.998;7.098;2024-03-23T07:31:28;100394.53;;;6.04;65.30
76285;BME280;71676;50.998;7.098;2024-03-23T07:33:54;100387.03;;;6.13;63.79
76285;BME280;71676;50.998;7.098;2024-03-23T07:36:20;100395.25;;;5.97;64.92
76285;BME280;71676;50.998;7.098;2024-03-23T07:38:46;100398.75;;;6.02;64.95
76285;BME280;71676;50.998;7.098;2024-03-23T07:41:15;100398.25;;;6.20;64.40
76285;BME280;71676;50.998;7.098;2024-03-23T07:43:42;100375.78;;;6.05;64.61
76285;BME280;71676;50.998;7.098;2024-03-23T07:46:10;100396.53;;;6.17;64.94
76285;BME280;71676;50.998;7.098;2024-03-23T07:48:37;100400.00;;;6.21;65.07
76285;BME280;71676;50.998;7.098;2024-03-23T07:51:05;100394.47;;;6.45;64.31
76285;BME280;71676;50.998;7.098;2024-03-23T07:53:31;100395.47;;;6.53;64.56
76285;BME280;71676;50.998;7.098;2024-03-23T07:55:59;100389.44;;;6.51;64.22
76285;BME280;71676;50.998;7.098;2024-03-23T07:58:25;100395.47;;;6.53;65.02
76285;BME280;71676;50.998;7.098;2024-03-23T08:00:52;100403.28;;;6.62;65.13
76285;BME280;71676;50.998;7.098;2024-03-23T08:03:18;100389.88;;;6.76;64.56
76285;BME280;71676;50.998;7.098;2024-03-23T08:05:46;100394.31;;;6.86;63.62
76285;BME280;71676;50.998;7.098;2024-03-23T08:08:12;100390.97;;;6.89;62.76
76285;BME280;71676;50.998;7.098;2024-03-23T08:10:47;100401.16;;;6.87;63.10
76285;BME280;71676;50.998;7.098;2024-03-23T08:13:13;100396.97;;;6.91;62.75
76285;BME280;71676;50.998;7.098;2024-03-23T08:15:40;100394.59;;;7.01;62.48
76285;BME280;71676;50.998;7.098;2024-03-23T08:18:05;100390.28;;;7.00;62.31
76285;BME280;71676;50.998;7.098;2024-03-23T08:20:32;100390.47;;;7.12;61.92
76285;BME280;71676;50.998;7.098;2024-03-23T08:22:59;100396.72;;;7.29;61.01
76285;BME280;71676;50.998;7.098;2024-03-23T08:25:26;100388.25;;;7.35;60.39
76285;BME280;71676;50.998;7.098;2024-03-23T08:27:52;100392.88;;;7.61;60.96
76285;BME280;71676;50.998;7.098;2024-03-23T08:30:18;100392.25;;;7.76;62.82
76285;BME280;71676;50.998;7.098;2024-03-23T08:32:44;100400.16;;;7.91;59.22
76285;BME280;71676;50.998;7.098;2024-03-23T08:35:11;100399.38;;;7.98;59.27
76285;BME280;71676;50.998;7.098;2024-03-23T08:37:37;100393.59;;;8.19;59.20
76285;BME280;71676;50.998;7.098;2024-03-23T08:40:06;100386.03;;;8.31;59.74
76285;BME280;71676;50.998;7.098;2024-03-23T08:42:32;100391.94;;;8.24;57.49
76285;BME280;71676;50.998;7.098;2024-03-23T08:44:58;100397.09;;;8.25;55.89
76285;BME280;71676;50.998;7.098;2024-03-23T08:47:24;100389.53;;;8.36;55.32
76285;BME280;71676;50.998;7.098;2024-03-23T08:49:51;100392.00;;;8.30;55.14
76285;BME280;71676;50.998;7.098;2024-03-23T08:52:16;100397.16;;;8.31;55.42
76285;BME280;71676;50.998;7.098;2024-03-23T08:54:43;100398.03;;;8.32;53.09
76285;BME280;71676;50.998;7.098;2024-03-23T08:57:10;100401.66;;;8.49;54.29
76285;BME280;71676;50.998;7.098;2024-03-23T08:59:37;100408.56;;;8.57;53.61
76285;BME280;71676;50.998;7.098;2024-03-23T09:02:03;100415.50;;;8.63;52.48
76285;BME280;71676;50.998;7.098;2024-03-23T09:04:30;100409.41;;;8.53;50.93
76285;BME280;71676;50.998;7.098;2024-03-23T09:06:56;100406.66;;;8.37;51.61
76285;BME280;71676;50.998;7.098;2024-03-23T09:09:24;100406.72;;;8.46;51.86
76285;BME280;71676;50.998;7.098;2024-03-23T09:11:49;100394.00;;;8.55;51.89
76285;BME280;71676;50.998;7.098;2024-03-23T09:14:17;100387.19;;;8.60;50.95
76285;BME280;71676;50.998;7.098;2024-03-23T09:16:44;100398.28;;;8.57;52.11
76285;BME280;71676;50.998;7.098;2024-03-23T09:19:11;100396.69;;;8.68;52.96
76285;BME280;71676;50.998;7.098;2024-03-23T09:21:36;100401.13;;;8.87;52.45
76285;BME280;71676;50.998;7.098;2024-03-23T09:24:03;100390.06;;;8.96;52.31
76285;BME280;71676;50.998;7.098;2024-03-23T09:26:29;100385.88;;;9.08;51.50
76285;BME280;71676;50.998;7.098;2024-03-23T09:28:55;100379.94;;;9.12;51.02
76285;BME280;71676;50.998;7.098;2024-03-23T09:31:23;100380.00;;;9.25;52.93
76285;BME280;71676;50.998;7.098;2024-03-23T09:33:49;100390.38;;;9.35;51.05
76285;BME280;71676;50.998;7.098;2024-03-23T09:36:15;100376.78;;;9.57;50.56
76285;BME280;71676;50.998;7.098;2024-03-23T09:38:41;100375.03;;;9.55;48.74
76285;BME280;71676;50.998;7.098;2024-03-23T09:41:08;100376.69;;;9.47;49.28
76285;BME280;71676;50.998;7.098;2024-03-23T09:43:35;100371.66;;;9.69;49.49
76285;BME280;71676;50.998;7.098;2024-03-23T09:46:01;100367.50;;;10.06;49.29
76285;BME280;71676;50.998;7.098;2024-03-23T09:48:29;100367.66;;;10.42;50.77
76285;BME280;71676;50.998;7.098;2024-03-23T09:50:55;100360.78;;;10.65;50.40
76285;BME280;71676;50.998;7.098;2024-03-23T09:53:22;100345.31;;;10.86;48.50
76285;BME280;71676;50.998;7.098;2024-03-23T09:55:50;100357.34;;;10.49;46.28
76285;BME280;71676;50.998;7.098;2024-03-23T09:58:17;100359.91;;;10.45;45.20
76285;BME280;71676;50.998;7.098;2024-03-23T10:00:43;100364.16;;;10.34;45.00
76285;BME280;71676;50.998;7.098;2024-03-23T10:03:10;100356.44;;;10.32;45.08
76285;BME280;71676;50.998;7.098;2024-03-23T10:05:38;100360.72;;;10.23;46.45
76285;BME280;71676;50.998;7.098;2024-03-23T10:08:17;100357.25;;;10.28;44.82
76285;BME280;71676;50.998;7.098;2024-03-23T10:10:44;100362.41;;;10.16;45.70
76285;BME280;71676;50.998;7.098;2024-03-23T10:13:11;100331.50;;;10.16;45.48
76285;BME280;71676;50.998;7.098;2024-03-23T10:15:54;100361.59;;;10.34;47.09
76285;BME280;71676;50.998;7.098;2024-03-23T10:18:20;100353.06;;;10.48;44.91
76285;BME280;71676;50.998;7.098;2024-03-23T10:20:52;100360.78;;;10.50;43.81
76285;BME280;71676;50.998;7.098;2024-03-23T10:23:18;100362.50;;;10.63;44.24
76285;BME280;71676;50.998;7.098;2024-03-23T10:25:45;100358.19;;;10.63;41.84
76285;BME280;71676;50.998;7.098;2024-03-23T10:28:11;100363.38;;;10.73;42.69
76285;BME280;71676;50.998;7.098;2024-03-23T10:30:38;100351.31;;;10.91;43.02
76285;BME280;71676;50.998;7.098;2024-03-23T10:33:06;100363.34;;;10.86;42.20
76285;BME280;71676;50.998;7.098;2024-03-23T10:35:33;100355.59;;;11.09;42.27
76285;BME280;71676;50.998;7.098;2024-03-23T10:38:02;100341.81;;;11.22;40.85
76285;BME280;71676;50.998;7.098;2024-03-23T10:40:29;100341.88;;;10.96;40.73
76285;BME280;71676;50.998;7.098;2024-03-23T10:42:57;100347.03;;;10.87;38.76
76285;BME280;71676;50.998;7.098;2024-03-23T10:45:24;100351.31;;;10.69;40.09
76285;BME280;71676;50.998;7.098;2024-03-23T10:47:50;100352.22;;;10.60;40.61
76285;BME280;71676;50.998;7.098;2024-03-23T10:50:17;100357.34;;;10.40;41.79
76285;BME280;71676;50.998;7.098;2024-03-23T10:52:44;100408.00;;;10.43;43.79
76285;BME280;71676;50.998;7.098;2024-03-23T10:55:16;100401.88;;;10.12;44.23
76285;BME280;71676;50.998;7.098;2024-03-23T10:57:44;100405.22;;;9.80;47.53
76285;BME280;71676;50.998;7.098;2024-03-23T11:00:12;100408.63;;;9.77;46.77
76285;BME280;71676;50.998;7.098;2024-03-23T11:02:38;100405.84;;;9.43;46.32
76285;BME280;71676;50.998;7.098;2024-03-23T11:05:28;100416.94;;;9.34;46.46
76285;BME280;71676;50.998;7.098;2024-03-23T11:07:53;100438.16;;;9.07;48.17
76285;BME280;71676;50.998;7.098;2024-03-23T11:10:29;100404.59;;;8.94;50.20
76285;BME280;71676;50.998;7.098;2024-03-23T11:12:55;100410.63;;;8.94;48.63
76285;BME280;71676;50.998;7.098;2024-03-23T11:15:22;100414.13;;;9.04;46.68
76285;BME280;71676;50.998;7.098;2024-03-23T11:18:03;100433.69;;;8.85;48.68
76285;BME280;71676;50.998;7.098;2024-03-23T11:20:32;100437.88;;;8.74;48.48
76285;BME280;71676;50.998;7.098;2024-03-23T11:22:57;100438.44;;;8.45;50.10
76285;BME280;71676;50.998;7.098;2024-03-23T11:25:25;100431.75;;;8.65;49.99
76285;BME280;71676;50.998;7.098;2024-03-23T11:27:53;100426.50;;;8.51;50.51
76285;BME280;71676;50.998;7.098;2024-03-23T11:30:21;100430.66;;;8.37;50.35
76285;BME280;71676;50.998;7.098;2024-03-23T11:32:48;100425.22;;;8.12;52.06
76285;BME280;71676;50.998;7.098;2024-03-23T11:35:27;100437.91;;;8.01;52.13
76285;BME280;71676;50.998;7.098;2024-03-23T11:38:04;100441.38;;;8.03;53.12
76285;BME280;71676;50.998;7.098;2024-03-23T11:40:31;100408.06;;;8.09;51.18
76285;BME280;71676;50.998;7.098;2024-03-23T11:43:00;100401.28;;;8.17;52.26
76285;BME280;71676;50.998;7.098;2024-03-23T11:45:27;100397.94;;;8.21;52.37
76285;BME280;71676;50.998;7.098;2024-03-23T11:48:05;100394.38;;;8.09;52.49
76285;BME280;71676;50.998;7.098;2024-03-23T11:50:32;100386.81;;;8.24;52.52
76285;BME280;71676;50.998;7.098;2024-03-23T11:53:14;100392.09;;;8.34;51.71
76285;BME280;71676;50.998;7.098;2024-03-23T11:55:43;100376.69;;;8.37;52.23
76285;BME280;71676;50.998;7.098;2024-03-23T11:58:10;100368.28;;;8.53;52.45
76285;BME280;71676;50.998;7.098;2024-03-23T12:00:37;100374.25;;;8.51;51.06
76285;BME280;71676;50.998;7.098;2024-03-23T12:03:03;100392.38;;;8.66;51.11
76285;BME280;71676;50.998;7.098;2024-03-23T12:05:30;100383.56;;;8.41;51.71
76285;BME280;71676;50.998;7.098;2024-03-23T12:10:44;100382.84;;;8.53;50.64
76285;BME280;71676;50.998;7.098;2024-03-23T12:13:15;100370.72;;;8.40;51.91
76285;BME280;71676;50.998;7.098;2024-03-23T12:15:40;100374.22;;;8.48;51.87
76285;BME280;71676;50.998;7.098;2024-03-23T12:18:07;100369.88;;;8.41;51.89
76285;BME280;71676;50.998;7.098;2024-03-23T12:20:33;100375.06;;;8.44;51.15
76285;BME280;71676;50.998;7.098;2024-03-23T12:23:07;100377.53;;;8.38;51.43
76285;BME280;71676;50.998;7.098;2024-03-23T12:25:32;100378.34;;;8.32;52.24
76285;BME280;71676;50.998;7.098;2024-03-23T12:27:59;100377.41;;;8.24;52.16
76285;BME280;71676;50.998;7.098;2024-03-23T12:30:26;100383.59;;;8.44;52.71
76285;BME280;71676;50.998;7.098;2024-03-23T12:32:53;100394.78;;;8.48;53.68
76285;BME280;71676;50.998;7.098;2024-03-23T12:35:19;100415.16;;;8.31;51.60
76285;BME280;71676;50.998;7.098;2024-03-23T12:37:45;100416.81;;;8.25;51.04
76285;BME280;71676;50.998;7.098;2024-03-23T12:40:11;100412.38;;;8.10;51.18
76285;BME280;71676;50.998;7.098;2024-03-23T12:42:38;100374.97;;;7.66;51.85
76285;BME280;71676;50.998;7.098;2024-03-23T12:45:04;100443.72;;;7.88;53.27
76285;BME280;71676;50.998;7.098;2024-03-23T12:48:15;100470.44;;;7.99;52.73
76285;BME280;71676;50.998;7.098;2024-03-23T12:54:33;100454.19;;;7.43;53.20
76285;BME280;71676;50.998;7.098;2024-03-23T12:57:00;100456.03;;;7.52;53.19
76285;BME280;71676;50.998;7.098;2024-03-23T12:59:28;100432.97;;;7.53;55.80
76285;BME280;71676;50.998;7.098;2024-03-23T13:01:54;100422.75;;;7.56;54.91
76285;BME280;71676;50.998;7.098;2024-03-23T13:04:21;100407.47;;;7.64;54.73
76285;BME280;71676;50.998;7.098;2024-03-23T13:06:48;100409.38;;;7.78;54.72
76285;BME280;71676;50.998;7.098;2024-03-23T13:09:14;100401.94;;;7.98;53.16
76285;BME280;71676;50.998;7.098;2024-03-23T13:11:42;100402.09;;;8.10;53.44
76285;BME280;71676;50.998;7.098;2024-03-23T13:14:08;100400.47;;;8.18;53.78
76285;BME280;71676;50.998;7.098;2024-03-23T13:16:34;100394.41;;;8.13;54.33
76285;BME280;71676;50.998;7.098;2024-03-23T13:19:00;100380.19;;;8.45;54.67
76285;BME280;71676;50.998;7.098;2024-03-23T13:21:28;100381.13;;;8.53;51.77
76285;BME280;71676;50.998;7.098;2024-03-23T13:23:54;100387.28;;;8.73;53.04
76285;BME280;71676;50.998;7.098;2024-03-23T13:26:21;100386.47;;;8.76;52.82
76285;BME280;71676;50.998;7.098;2024-03-23T13:28:46;100373.22;;;8.32;49.04
76285;BME280;71676;50.998;7.098;2024-03-23T13:31:13;100373.63;;;8.74;48.45
76285;BME280;71676;50.998;7.098;2024-03-23T13:33:38;100347.84;;;8.68;49.29
76285;BME280;71676;50.998;7.098;2024-03-23T13:36:07;100345.38;;;8.80;47.69
76285;BME280;71676;50.998;7.098;2024-03-23T13:38:34;100355.03;;;9.11;49.79
76285;BME280;71676;50.998;7.098;2024-03-23T13:41:01;100346.63;;;9.34;49.78
76285;BME280;71676;50.998;7.098;2024-03-23T13:43:29;100352.72;;;9.51;50.17
76285;BME280;71676;50.998;7.098;2024-03-23T13:45:58;100343.34;;;9.63;47.62
76285;BME280;71676;50.998;7.098;2024-03-23T13:48:26;100344.22;;;9.68;46.39
76285;BME280;71676;50.998;7.098;2024-03-23T13:50:57;100343.38;;;9.74;45.54
76285;BME280;71676;50.998;7.098;2024-03-23T13:53:23;100333.03;;;9.62;47.92
76285;BME280;71676;50.998;7.098;2024-03-23T13:55:51;100331.34;;;9.67;48.17
76285;BME280;71676;50.998;7.098;2024-03-23T13:58:17;100323.63;;;9.76;47.51